Time;durP1;ratioP1;P1;durP2;ratioP2;P2;SDS_P1;SDS_P2;PMS_P1;PMS_P2;Temp;Humidity;BMP_temperature;BMP_pressure;BME280_temperature;BME280_humidity;BME280_pressure;Samples;Min_cycle;Max_cycle;Signal;HPM_P1;HPM_P2
2024/02/11 00:09:04;;;;;;;;;;;9.80;99.90;;;;;;6733226;88;20330;-78
2024/02/11 00:19:06;;;;;;;;;;;9.80;99.90;;;;;;6738661;88;20495;-78
2024/02/11 00:29:09;;;;;;;;;;;9.70;99.90;;;;;;6738426;88;20077;-77
2024/02/11 00:39:09;;;;;;;;;;;9.70;99.90;;;;;;6741033;88;20061;-77
2024/02/11 00:49:10;;;;;;;;;;;9.60;99.90;;;;;;6713191;88;20059;-77
2024/02/11 00:59:14;;;;;;;;;;;9.70;99.90;;;;;;6736397;88;20071;-77
2024/02/11 01:09:14;;;;;;;;;;;9.70;99.90;;;;;;6735396;88;20080;-76
2024/02/11 01:19:14;;;;;;;;;;;9.70;99.90;;;;;;6729537;88;20074;-76
2024/02/11 01:29:15;;;;;;;;;;;9.90;99.90;;;;;;6732664;88;20062;-76
2024/02/11 01:39:16;;;;;;;;;;;10.10;99.90;;;;;;6738950;88;20714;-77
2024/02/11 01:49:16;;;;;;;;;;;10.00;99.90;;;;;;6743110;88;20102;-77
2024/02/11 01:59:18;;;;;;;;;;;10.10;99.90;;;;;;6731147;88;20259;-77
2024/02/11 02:09:19;;;;;;;;;;;10.10;99.90;;;;;;6749809;77;20428;-73
2024/02/11 02:19:20;;;;;;;;;;;10.10;99.90;;;;;;6729971;87;20069;-74
2024/02/11 02:29:21;;;;;;;;;;;10.20;99.90;;;;;;6726138;88;20110;-74
2024/02/11 02:39:22;;;;;;;;;;;10.10;99.90;;;;;;6728229;88;20175;-74
2024/02/11 02:49:22;;;;;;;;;;;10.10;99.90;;;;;;6740647;88;20113;-74
2024/02/11 02:59:23;;;;;;;;;;;10.10;99.90;;;;;;6750900;88;20215;-73
2024/02/11 03:09:24;;;;;;;;;;;10.00;99.90;;;;;;6725878;88;20079;-74
2024/02/11 03:19:26;;;;;;;;;;;9.90;99.90;;;;;;6741267;87;20466;-74
2024/02/11 03:29:26;;;;;;;;;;;9.80;99.90;;;;;;6734733;88;20078;-74
2024/02/11 03:39:27;;;;;;;;;;;9.80;99.90;;;;;;6734112;88;20094;-74
2024/02/11 03:49:28;;;;;;;;;;;9.70;99.90;;;;;;6735462;88;20442;-74
2024/02/11 03:59:28;;;;;;;;;;;9.70;99.90;;;;;;6736754;88;20070;-74
2024/02/11 04:09:29;;;;;;;;;;;9.60;99.90;;;;;;6735535;87;20205;-74
2024/02/11 04:19:32;;;;;;;;;;;9.60;99.90;;;;;;6733597;88;20050;-74
2024/02/11 04:29:33;;;;;;;;;;;9.50;99.90;;;;;;6732488;88;20080;-74
2024/02/11 04:39:33;;;;;;;;;;;9.50;99.90;;;;;;6732975;87;20057;-74
2024/02/11 04:49:35;;;;;;;;;;;10.00;99.90;;;;;;6732780;88;20078;-74
2024/02/11 04:59:36;;;;;;;;;;;10.10;99.90;;;;;;6734220;88;20078;-74
2024/02/11 05:09:37;;;;;;;;;;;10.20;99.90;;;;;;6737480;88;20188;-74
2024/02/11 05:19:38;;;;;;;;;;;10.10;99.90;;;;;;6738890;88;20119;-74
2024/02/11 05:29:39;;;;;;;;;;;10.10;99.90;;;;;;6735726;88;20523;-75
2024/02/11 05:39:42;;;;;;;;;;;9.90;99.90;;;;;;6731537;88;20090;-74
2024/02/11 05:49:43;;;;;;;;;;;9.90;99.90;;;;;;6732097;88;20544;-74
2024/02/11 05:59:48;;;;;;;;;;;9.80;99.90;;;;;;6733143;88;20108;-74
2024/02/11 06:09:49;;;;;;;;;;;9.70;99.90;;;;;;6731974;88;20129;-74
2024/02/11 06:19:49;;;;;;;;;;;9.30;99.90;;;;;;6735661;87;20491;-73
2024/02/11 06:29:50;;;;;;;;;;;8.80;99.90;;;;;;6733274;88;20054;-75
2024/02/11 06:39:51;;;;;;;;;;;8.30;99.90;;;;;;6734470;87;20090;-75
2024/02/11 06:49:52;;;;;;;;;;;8.10;99.90;;;;;;6731704;88;20057;-75
2024/02/11 06:59:54;;;;;;;;;;;8.20;99.90;;;;;;6729577;88;20083;-76
2024/02/11 07:09:54;;;;;;;;;;;8.10;99.90;;;;;;6730523;88;20050;-75
2024/02/11 07:19:55;;;;;;;;;;;8.20;99.90;;;;;;6739245;88;20083;-75
2024/02/11 07:29:56;;;;;;;;;;;8.10;99.90;;;;;;6730735;88;20058;-76
2024/02/11 07:39:56;;;;;;;;;;;8.10;99.90;;;;;;6723851;87;20691;-76
2024/02/11 07:49:57;;;;;;;;;;;8.20;99.90;;;;;;6730044;88;20177;-75
2024/02/11 07:59:58;;;;;;;;;;;8.20;99.90;;;;;;6729306;88;20181;-75
2024/02/11 08:09:59;;;;;;;;;;;8.20;99.90;;;;;;6754437;76;20149;-75
2024/02/11 08:19:59;;;;;;;;;;;8.40;99.90;;;;;;6748122;88;20054;-78
2024/02/11 08:30:00;;;;;;;;;;;8.50;99.90;;;;;;6741474;88;20472;-77
2024/02/11 08:40:01;;;;;;;;;;;8.60;99.90;;;;;;6735905;88;20107;-78
2024/02/11 08:50:01;;;;;;;;;;;8.70;99.90;;;;;;6734858;88;20541;-79
2024/02/11 09:00:02;;;;;;;;;;;8.70;99.90;;;;;;6750513;87;20061;-77
2024/02/11 09:10:03;;;;;;;;;;;8.90;99.90;;;;;;6734266;88;20069;-76
2024/02/11 09:20:04;;;;;;;;;;;9.10;99.90;;;;;;6740651;88;20066;-78
2024/02/11 09:30:07;;;;;;;;;;;9.20;99.90;;;;;;6741051;88;20058;-78
2024/02/11 09:40:08;;;;;;;;;;;9.30;99.90;;;;;;6734569;88;20593;-76
2024/02/11 09:50:09;;;;;;;;;;;9.60;99.90;;;;;;6736663;88;20109;-77
2024/02/11 10:00:10;;;;;;;;;;;9.60;99.90;;;;;;6738167;88;20083;-77
2024/02/11 10:10:11;;;;;;;;;;;9.90;99.90;;;;;;6759218;88;20084;-77
2024/02/11 10:20:12;;;;;;;;;;;10.30;99.90;;;;;;6751237;88;20082;-77
2024/02/11 10:30:13;;;;;;;;;;;10.50;99.90;;;;;;6741346;87;20058;-78
2024/02/11 10:40:14;;;;;;;;;;;10.60;99.90;;;;;;6735075;88;20063;-76
2024/02/11 10:50:14;;;;;;;;;;;10.50;99.90;;;;;;6735669;88;20210;-76
2024/02/11 11:00:16;;;;;;;;;;;10.50;99.90;;;;;;6740919;88;20058;-77
2024/02/11 11:10:18;;;;;;;;;;;10.60;99.90;;;;;;6745120;88;20114;-77
2024/02/11 11:20:19;;;;;;;;;;;11.40;99.90;;;;;;6749306;88;20114;-77
2024/02/11 11:30:19;;;;;;;;;;;11.60;99.90;;;;;;6749376;88;20538;-77
2024/02/11 11:40:22;;;;;;;;;;;11.70;99.90;;;;;;6750470;88;20060;-76
2024/02/11 11:50:23;;;;;;;;;;;12.20;99.90;;;;;;6739739;88;20122;-78
2024/02/11 12:00:23;;;;;;;;;;;12.80;99.90;;;;;;6644693;89;20079;-78
2024/02/11 12:10:24;;;;;;;;;;;12.10;99.90;;;;;;6644064;89;20090;-78
2024/02/11 12:20:25;;;;;;;;;;;12.00;99.90;;;;;;6731095;88;20078;-77
2024/02/11 12:30:25;;;;;;;;;;;11.80;99.90;;;;;;6735351;88;20083;-77
2024/02/11 12:40:27;;;;;;;;;;;12.00;99.90;;;;;;6747161;87;20062;-76
2024/02/11 12:50:27;;;;;;;;;;;12.00;99.90;;;;;;6749647;87;20085;-74
2024/02/11 13:00:28;;;;;;;;;;;11.70;99.90;;;;;;6752414;88;20099;-78
2024/02/11 13:10:28;;;;;;;;;;;11.20;99.90;;;;;;6746834;87;20123;-77
2024/02/11 13:20:29;;;;;;;;;;;11.20;99.90;;;;;;6747101;88;20204;-78
2024/02/11 13:30:30;;;;;;;;;;;11.70;99.90;;;;;;6750479;88;20054;-77
2024/02/11 13:40:31;;;;;;;;;;;11.80;99.90;;;;;;6747080;87;20088;-76
2024/02/11 13:50:32;;;;;;;;;;;11.60;99.90;;;;;;6750319;88;20695;-77
2024/02/11 14:00:33;;;;;;;;;;;11.80;99.90;;;;;;6750606;88;20069;-77
2024/02/11 14:10:34;;;;;;;;;;;11.80;99.90;;;;;;6751785;76;20062;-78
2024/02/11 14:20:36;;;;;;;;;;;11.60;99.90;;;;;;6740366;88;20692;-78
2024/02/11 14:30:36;;;;;;;;;;;11.50;99.90;;;;;;6739351;88;20083;-78
2024/02/11 14:40:38;;;;;;;;;;;11.50;99.90;;;;;;6738404;88;20055;-77
2024/02/11 14:50:39;;;;;;;;;;;11.50;99.90;;;;;;6739654;88;20098;-77
2024/02/11 15:00:41;;;;;;;;;;;11.60;99.90;;;;;;6737936;88;20234;-78
2024/02/11 15:10:42;;;;;;;;;;;11.50;99.90;;;;;;6736938;88;20128;-80
2024/02/11 15:20:42;;;;;;;;;;;11.70;99.90;;;;;;6739884;88;20075;-80
2024/02/11 15:30:43;;;;;;;;;;;11.60;99.90;;;;;;6747069;88;20050;-79
2024/02/11 15:40:45;;;;;;;;;;;11.50;99.90;;;;;;6737738;88;20155;-80
2024/02/11 15:50:47;;;;;;;;;;;11.40;99.90;;;;;;6731651;88;20514;-79
2024/02/11 16:00:48;;;;;;;;;;;11.20;99.90;;;;;;6724856;88;20066;-80
2024/02/11 16:10:49;;;;;;;;;;;11.20;99.90;;;;;;6721116;88;20080;-78
2024/02/11 16:20:49;;;;;;;;;;;11.20;99.90;;;;;;6735380;88;20037;-78
2024/02/11 16:30:50;;;;;;;;;;;11.00;99.90;;;;;;6744495;88;20137;-78
2024/02/11 16:40:50;;;;;;;;;;;10.90;99.90;;;;;;6727466;88;20181;-78
2024/02/11 16:50:51;;;;;;;;;;;10.70;99.90;;;;;;6737837;88;20120;-80
2024/02/11 17:00:53;;;;;;;;;;;10.60;99.90;;;;;;6743654;88;20088;-78
2024/02/11 17:10:53;;;;;;;;;;;10.60;99.90;;;;;;6705541;88;20094;-77
2024/02/11 17:20:55;;;;;;;;;;;10.60;99.90;;;;;;6719492;88;20058;-77
2024/02/11 17:30:55;;;;;;;;;;;10.50;99.90;;;;;;6731713;88;20091;-77
2024/02/11 17:40:56;;;;;;;;;;;10.40;99.90;;;;;;6735737;88;20583;-77
2024/02/11 17:50:56;;;;;;;;;;;10.40;99.90;;;;;;6727329;88;20100;-77
2024/02/11 18:00:57;;;;;;;;;;;10.40;99.90;;;;;;6733475;88;20063;-75
2024/02/11 18:10:58;;;;;;;;;;;10.30;99.90;;;;;;6740054;87;20124;-77
2024/02/11 18:20:59;;;;;;;;;;;10.30;99.90;;;;;;6727014;88;20134;-77
2024/02/11 18:30:59;;;;;;;;;;;10.20;99.90;;;;;;6726103;88;20186;-77
2024/02/11 18:41:03;;;;;;;;;;;10.20;99.90;;;;;;6723642;88;20063;-76
2024/02/11 18:51:05;;;;;;;;;;;10.10;99.90;;;;;;6724982;88;20093;-77
2024/02/11 19:01:06;;;;;;;;;;;10.00;99.90;;;;;;6726018;88;20070;-77
2024/02/11 19:11:06;;;;;;;;;;;10.10;99.90;;;;;;6731908;88;20188;-77
2024/02/11 19:21:08;;;;;;;;;;;10.10;99.90;;;;;;6736741;88;20172;-77
2024/02/11 19:31:11;;;;;;;;;;;9.90;99.90;;;;;;6738631;88;20063;-79
2024/02/11 19:41:12;;;;;;;;;;;9.90;99.90;;;;;;6729359;88;20066;-77
2024/02/11 19:51:13;;;;;;;;;;;9.90;99.90;;;;;;6728308;88;20081;-77
2024/02/11 20:01:14;;;;;;;;;;;9.70;99.90;;;;;;6731307;88;20089;-78
2024/02/11 20:11:14;;;;;;;;;;;9.70;99.90;;;;;;6715102;77;20082;-76
2024/02/11 20:21:15;;;;;;;;;;;9.80;99.90;;;;;;6685332;87;20105;-76
2024/02/11 20:31:15;;;;;;;;;;;9.70;99.90;;;;;;6694724;87;20206;-76
2024/02/11 20:41:16;;;;;;;;;;;9.70;99.90;;;;;;6696321;87;20130;-77
2024/02/11 20:51:18;;;;;;;;;;;9.80;99.90;;;;;;6693441;87;20614;-77
2024/02/11 21:01:19;;;;;;;;;;;9.70;99.90;;;;;;6693715;87;20510;-77
2024/02/11 21:11:19;;;;;;;;;;;9.60;99.90;;;;;;6707786;87;20064;-77
2024/02/11 21:21:20;;;;;;;;;;;9.60;99.90;;;;;;6695810;87;20057;-78
2024/02/11 21:31:23;;;;;;;;;;;9.50;99.90;;;;;;6695900;87;20070;-78
2024/02/11 21:41:23;;;;;;;;;;;9.50;99.90;;;;;;6695072;87;20080;-75
2024/02/11 21:51:24;;;;;;;;;;;9.40;99.90;;;;;;6685733;87;20176;-74
2024/02/11 22:01:26;;;;;;;;;;;9.50;99.90;;;;;;6681657;87;20073;-76
2024/02/11 22:11:26;;;;;;;;;;;9.40;99.90;;;;;;6681574;87;20287;-75
2024/02/11 22:21:27;;;;;;;;;;;9.30;99.90;;;;;;6682837;87;20477;-75
2024/02/11 22:31:27;;;;;;;;;;;9.20;99.90;;;;;;6679976;87;20108;-75
2024/02/11 22:41:28;;;;;;;;;;;9.20;99.90;;;;;;6691922;87;20116;-76
2024/02/11 22:51:29;;;;;;;;;;;9.30;99.90;;;;;;6695905;87;20065;-76
2024/02/11 23:01:30;;;;;;;;;;;9.10;99.90;;;;;;6693035;87;20057;-77
2024/02/11 23:11:30;;;;;;;;;;;9.10;99.90;;;;;;6703169;87;20576;-77
2024/02/11 23:21:31;;;;;;;;;;;9.10;99.90;;;;;;6702256;87;20080;-77
2024/02/11 23:31:31;;;;;;;;;;;9.10;99.90;;;;;;6691215;87;20065;-77
2024/02/11 23:41:32;;;;;;;;;;;9.10;99.90;;;;;;6686399;87;20255;-78
2024/02/11 23:51:33;;;;;;;;;;;9.00;99.90;;;;;;6693193;87;20059;-77
